Time;durP1;ratioP1;P1;durP2;ratioP2;P2;SDS_P1;SDS_P2;PMS_P1;PMS_P2;Temp;Humidity;BMP_temperature;BMP_pressure;BME280_temperature;BME280_humidity;BME280_pressure;Samples;Min_cycle;Max_cycle;Signal;HPM_P1;HPM_P2
2021/04/06 00:00:54;;;;;;;35.35;33.17;;;24.80;99.90;;;;;;5098515;28;20020;-73
2021/04/06 00:03:26;;;;;;;34.80;32.67;;;24.40;99.90;;;;;;5099996;28;20112;-72
2021/04/06 00:06:00;;;;;;;33.70;31.48;;;24.80;99.90;;;;;;5100032;28;20457;-70
2021/04/06 00:08:29;;;;;;;29.67;27.88;;;25.50;99.90;;;;;;5100303;28;20023;-74
2021/04/06 00:11:00;;;;;;;28.00;26.30;;;25.90;99.90;;;;;;5099869;28;20110;-70
2021/04/06 00:13:33;;;;;;;27.27;25.58;;;26.20;99.90;;;;;;5100026;28;20357;-75
2021/04/06 00:16:05;;;;;;;27.13;25.38;;;26.10;99.90;;;;;;5100603;28;20027;-74
2021/04/06 00:18:35;;;;;;;27.40;25.65;;;25.80;99.90;;;;;;5100097;28;20027;-74
2021/04/06 00:21:06;;;;;;;26.58;24.63;;;25.70;99.90;;;;;;5100604;28;20537;-76
2021/04/06 00:23:34;;;;;;;26.83;25.13;;;25.70;99.90;;;;;;5100407;28;20028;-74
2021/04/06 00:26:03;;;;;;;27.40;25.85;;;25.70;99.90;;;;;;5099992;28;20469;-71
2021/04/06 00:28:35;;;;;;;27.00;25.40;;;25.80;99.90;;;;;;5099883;28;20027;-73
2021/04/06 00:31:06;;;;;;;27.60;25.58;;;26.00;99.90;;;;;;5099826;28;20427;-73
2021/04/06 00:33:43;;;;;;;24.35;22.67;;;26.70;99.90;;;;;;5100122;28;20069;-76
2021/04/06 00:36:11;;;;;;;23.70;22.30;;;26.60;99.90;;;;;;5100286;28;20020;-70
2021/04/06 00:38:41;;;;;;;22.45;21.08;;;26.70;99.90;;;;;;5100821;28;20020;-72
2021/04/06 00:41:14;;;;;;;22.83;21.17;;;27.20;99.90;;;;;;5100009;28;20181;-77
2021/04/06 00:43:45;;;;;;;20.73;19.27;;;26.90;99.90;;;;;;5100901;28;20021;-77
2021/04/06 00:46:41;;;;;;;15.27;14.38;;;27.20;99.90;;;;;;5100780;28;20107;-76
2021/04/06 00:49:13;;;;;;;14.20;13.40;;;27.50;99.90;;;;;;5099043;28;20046;-78
2021/04/06 00:51:41;;;;;;;13.45;12.50;;;27.80;99.90;;;;;;5100074;28;20047;-78
2021/04/06 00:54:13;;;;;;;12.13;11.23;;;28.10;99.90;;;;;;5100000;28;20024;-68
2021/04/06 00:56:43;;;;;;;12.40;11.48;;;28.20;99.90;;;;;;5099907;28;20024;-72
2021/04/06 00:59:13;;;;;;;11.60;10.80;;;28.30;99.90;;;;;;5098158;28;20023;-71
2021/04/06 01:01:41;;;;;;;11.90;11.00;;;28.30;99.90;;;;;;5099813;28;20111;-68
2021/04/06 01:04:10;;;;;;;11.80;10.80;;;28.30;99.90;;;;;;5099263;28;20457;-66
2021/04/06 01:06:58;;;;;;;9.50;8.90;;;28.10;99.90;;;;;;5099333;28;20571;-69
2021/04/06 01:09:40;;;;;;;10.32;9.60;;;28.00;99.90;;;;;;5099250;28;20023;-70
2021/04/06 01:12:09;;;;;;;10.05;9.25;;;28.00;99.90;;;;;;5096829;28;20085;-71
2021/04/06 01:14:42;;;;;;;9.38;8.80;;;27.80;99.90;;;;;;5096973;28;20034;-67
2021/04/06 01:17:15;;;;;;;9.13;8.48;;;27.70;99.90;;;;;;5095989;28;20024;-68
2021/04/06 01:19:43;;;;;;;8.90;8.27;;;27.90;99.90;;;;;;5096430;28;20024;-67
2021/04/06 01:22:14;;;;;;;9.10;8.30;;;27.80;99.90;;;;;;5094670;28;20489;-66
2021/04/06 01:24:41;;;;;;;9.27;8.50;;;27.80;99.90;;;;;;5095901;28;20024;-68
2021/04/06 01:27:19;;;;;;;8.63;7.90;;;27.70;99.90;;;;;;5095950;28;20065;-70
2021/04/06 01:29:56;;;;;;;9.13;8.35;;;27.80;99.90;;;;;;5095709;28;20028;-68
2021/04/06 01:32:27;;;;;;;7.90;7.28;;;27.80;99.90;;;;;;5095951;28;20476;-67
2021/04/06 01:34:55;;;;;;;8.88;8.15;;;27.70;99.90;;;;;;5095879;28;20051;-76
2021/04/06 01:37:25;;;;;;;9.32;8.63;;;27.70;99.90;;;;;;5094305;28;20117;-73
2021/04/06 01:39:56;;;;;;;9.27;8.57;;;27.70;99.90;;;;;;5095679;28;20489;-76
2021/04/06 01:42:25;;;;;;;9.40;8.80;;;27.70;99.90;;;;;;5099697;28;20036;-75
2021/04/06 01:44:55;;;;;;;9.63;9.02;;;27.80;99.90;;;;;;5097145;28;20440;-69
2021/04/06 01:47:26;;;;;;;9.70;9.10;;;27.80;99.90;;;;;;5094143;28;20050;-70
2021/04/06 01:49:56;;;;;;;10.57;9.55;;;27.80;99.90;;;;;;5094137;28;20388;-69
2021/04/06 01:52:24;;;;;;;10.40;9.50;;;27.80;99.90;;;;;;5095551;28;20028;-68
2021/04/06 01:55:05;;;;;;;10.75;10.00;;;27.90;99.90;;;;;;5095469;28;20025;-69
2021/04/06 01:57:40;;;;;;;9.15;8.43;;;28.20;99.90;;;;;;5095595;28;20046;-68
2021/04/06 02:00:48;;;;;;;8.05;7.55;;;28.30;99.90;;;;;;5095148;28;20035;-63
2021/04/06 02:03:17;;;;;;;8.73;7.88;;;28.20;99.90;;;;;;5093792;28;20020;-65
2021/04/06 02:05:47;;;;;;;8.98;8.07;;;28.10;99.90;;;;;;5093705;28;20138;-64
2021/04/06 02:08:17;;;;;;;10.27;9.23;;;28.20;99.90;;;;;;5095135;28;20039;-64
2021/04/06 02:10:45;;;;;;;14.93;10.35;;;28.20;99.90;;;;;;5095313;28;20031;-64
2021/04/06 02:13:15;;;;;;;10.15;9.23;;;27.90;99.90;;;;;;5094450;28;20526;-65
2021/04/06 02:15:55;;;;;;;10.35;9.55;;;27.90;99.90;;;;;;5094868;28;20032;-65
2021/04/06 02:18:25;;;;;;;19.52;11.68;;;27.60;99.90;;;;;;5093986;28;20473;-73
2021/04/06 02:20:52;;;;;;;;;;;27.50;99.90;;;;;;5093857;28;20463;-72
2021/04/06 02:23:20;;;;;;;10.15;9.32;;;27.80;99.90;;;;;;5094240;28;19907;-71
2021/04/06 02:25:57;;;;;;;10.68;9.80;;;28.10;99.90;;;;;;5094676;28;20042;-68
2021/04/06 02:28:25;;;;;;;9.55;8.70;;;28.30;99.90;;;;;;5094791;28;20416;-68
2021/04/06 02:30:58;;;;;;;21.17;11.85;;;28.30;99.90;;;;;;5094950;28;20028;-68
2021/04/06 02:33:31;;;;;;;16.55;10.82;;;28.30;99.90;;;;;;5094670;28;20027;-68
2021/04/06 02:36:06;;;;;;;12.38;9.35;;;28.20;99.90;;;;;;5095358;28;20024;-68
2021/04/06 02:38:36;;;;;;;11.60;9.27;;;28.10;99.90;;;;;;5094964;28;20020;-70
2021/04/06 02:41:05;;;;;;;10.73;9.60;;;28.20;99.90;;;;;;5094758;28;20113;-69
2021/04/06 02:43:51;;;;;;;10.23;9.45;;;28.30;99.90;;;;;;5094532;28;20431;-67
2021/04/06 02:46:25;;;;;;;10.25;9.52;;;28.70;99.90;;;;;;5094737;28;20050;-68
2021/04/06 02:48:55;;;;;;;11.50;10.40;;;28.50;99.90;;;;;;5093851;28;20031;-67
2021/04/06 02:51:22;;;;;;;;;;;28.40;99.90;;;;;;5095069;28;20485;-68
2021/04/06 02:53:51;;;;;;;9.55;8.82;;;28.10;99.90;;;;;;5094341;28;20024;-70
2021/04/06 02:56:44;;;;;;;9.98;9.32;;;27.80;99.90;;;;;;5094313;28;20016;-69
2021/04/06 02:59:20;;;;;;;10.70;10.10;;;27.50;99.90;;;;;;5091049;28;20102;-66
2021/04/06 03:01:50;;;;;;;11.52;10.63;;;27.70;99.90;;;;;;5094277;28;20086;-69
2021/04/06 03:04:28;;;;;;;11.82;10.88;;;27.60;99.90;;;;;;5092971;28;20137;-65
2021/04/06 03:06:57;;;;;;;12.77;11.88;;;27.20;99.90;;;;;;5094473;28;20032;-66
2021/04/06 03:09:26;;;;;;;14.52;13.48;;;27.00;99.90;;;;;;5094086;28;20511;-65
2021/04/06 03:11:55;;;;;;;14.23;13.30;;;27.00;99.90;;;;;;5093878;28;20047;-68
2021/04/06 03:14:25;;;;;;;13.50;12.80;;;27.00;99.90;;;;;;5092555;28;20050;-68
2021/04/06 03:16:53;;;;;;;13.45;12.60;;;26.80;99.90;;;;;;5093849;28;20104;-66
2021/04/06 03:19:31;;;;;;;13.25;12.18;;;26.80;99.90;;;;;;5093887;28;20020;-68
2021/04/06 03:21:59;;;;;;;11.50;10.73;;;26.80;99.90;;;;;;5092461;28;20388;-68
2021/04/06 03:24:30;;;;;;;11.10;10.38;;;27.00;99.90;;;;;;5093755;28;20436;-69
2021/04/06 03:27:05;;;;;;;10.75;10.07;;;27.20;99.90;;;;;;5093762;28;20484;-68
2021/04/06 03:29:33;;;;;;;10.50;9.77;;;27.30;99.90;;;;;;5093432;28;20487;-68
2021/04/06 03:32:01;;;;;;;11.10;10.13;;;27.20;99.90;;;;;;5093572;28;20349;-66
2021/04/06 03:34:37;;;;;;;10.43;9.68;;;27.10;99.90;;;;;;5092943;28;20020;-68
2021/04/06 03:37:06;;;;;;;10.90;10.20;;;27.10;99.90;;;;;;5093948;28;20032;-68
2021/04/06 03:39:37;;;;;;;12.52;11.32;;;27.50;99.90;;;;;;5093331;28;20173;-68
2021/04/06 03:42:05;;;;;;;11.60;10.90;;;27.30;99.90;;;;;;5093586;28;20039;-69
2021/04/06 03:44:33;;;;;;;12.20;11.20;;;27.60;99.90;;;;;;5093056;28;20028;-67
2021/04/06 03:47:05;;;;;;;11.00;9.82;;;28.20;99.90;;;;;;5093402;28;20065;-68
2021/04/06 03:49:34;;;;;;;10.80;9.70;;;28.30;99.90;;;;;;5092213;28;20431;-68
2021/04/06 03:52:06;;;;;;;11.02;10.13;;;27.90;99.90;;;;;;5093140;28;20024;-67
2021/04/06 03:54:48;;;;;;;10.70;9.90;;;27.50;99.90;;;;;;5092156;28;20016;-68
2021/04/06 03:57:52;;;;;;;10.50;9.70;;;26.90;99.90;;;;;;5093877;28;20050;-67
2021/04/06 04:00:20;;;;;;;10.80;9.68;;;26.50;99.90;;;;;;5093889;28;20024;-67
2021/04/06 04:02:47;;;;;;;9.57;9.00;;;26.60;99.90;;;;;;5093415;28;20024;-72
2021/04/06 04:05:15;;;;;;;10.60;9.90;;;26.60;99.90;;;;;;5093906;28;20497;-73
2021/04/06 04:07:42;;;;;;;10.50;9.65;;;26.60;99.90;;;;;;5093660;28;20020;-72
2021/04/06 04:10:11;;;;;;;10.05;9.38;;;26.50;99.90;;;;;;5093312;28;20028;-72
2021/04/06 04:12:39;;;;;;;10.45;9.65;;;26.50;99.90;;;;;;5093246;28;20078;-72
2021/04/06 04:15:08;;;;;;;10.30;9.60;;;26.40;99.90;;;;;;5093519;28;20198;-72
2021/04/06 04:17:36;;;;;;;10.55;9.95;;;26.30;99.90;;;;;;5093988;28;20056;-70
2021/04/06 04:20:10;;;;;;;11.73;10.68;;;26.10;99.90;;;;;;5093248;28;20078;-70
2021/04/06 04:22:40;;;;;;;11.73;10.70;;;26.00;99.90;;;;;;5093781;28;20074;-71
2021/04/06 04:25:08;;;;;;;;;;;26.00;99.90;;;;;;5093454;28;20381;-66
2021/04/06 04:27:36;;;;;;;12.38;11.40;;;26.00;99.90;;;;;;5093062;28;19958;-73
2021/04/06 04:30:06;;;;;;;12.68;11.40;;;26.30;99.90;;;;;;5091478;28;20024;-67
2021/04/06 04:32:33;;;;;;;11.90;10.90;;;26.30;99.90;;;;;;5092790;28;20036;-66
2021/04/06 04:35:01;;;;;;;11.05;10.15;;;26.40;99.90;;;;;;5091458;28;20020;-66
2021/04/06 04:37:28;;;;;;;11.20;10.38;;;26.40;99.90;;;;;;5091401;28;20059;-66
2021/04/06 04:39:55;;;;;;;10.80;9.90;;;26.20;99.90;;;;;;5091930;28;20075;-65
2021/04/06 04:42:23;;;;;;;10.88;10.10;;;26.20;99.90;;;;;;5092934;28;20024;-66
2021/04/06 04:44:50;;;;;;;11.50;10.50;;;26.10;99.90;;;;;;5092842;28;20016;-72
2021/04/06 04:47:18;;;;;;;10.90;10.10;;;26.10;99.90;;;;;;5096571;28;20339;-73
2021/04/06 04:49:45;;;;;;;10.63;9.88;;;26.20;99.90;;;;;;5096774;28;20032;-69
2021/04/06 04:52:16;;;;;;;11.60;10.52;;;26.10;99.90;;;;;;5096713;28;20020;-67
2021/04/06 04:54:42;;;;;;;;;;;26.10;99.90;;;;;;5097116;28;20092;-67
2021/04/06 04:57:09;;;;;;;11.32;10.50;;;26.20;99.90;;;;;;5096770;28;19939;-68
2021/04/06 04:59:37;;;;;;;11.32;10.32;;;26.30;99.90;;;;;;5096461;28;20483;-66
2021/04/06 05:02:04;;;;;;;10.70;9.88;;;26.20;99.90;;;;;;5096375;28;20487;-68
2021/04/06 05:04:31;;;;;;;11.05;10.25;;;26.00;99.90;;;;;;5096327;28;20024;-66
2021/04/06 05:07:00;;;;;;;10.95;10.10;;;26.00;99.90;;;;;;5096265;28;20024;-68
2021/04/06 05:09:27;;;;;;;11.65;10.73;;;26.00;99.90;;;;;;5096272;28;20031;-70
2021/04/06 05:11:55;;;;;;;13.60;12.13;;;25.90;99.90;;;;;;5096509;28;20020;-73
2021/04/06 05:14:23;;;;;;;13.13;12.00;;;25.90;99.90;;;;;;5096218;28;20491;-74
2021/04/06 05:16:50;;;;;;;12.98;11.90;;;25.90;99.90;;;;;;5096373;28;20464;-71
2021/04/06 05:19:17;;;;;;;13.23;12.10;;;25.70;99.90;;;;;;5096256;28;20028;-73
2021/04/06 05:21:45;;;;;;;13.52;12.40;;;25.60;99.90;;;;;;5095557;28;20115;-69
2021/04/06 05:24:12;;;;;;;13.70;12.70;;;25.40;99.90;;;;;;5096065;28;20020;-69
2021/04/06 05:26:40;;;;;;;14.25;12.85;;;25.30;99.90;;;;;;5095971;28;20024;-70
2021/04/06 05:29:07;;;;;;;14.07;12.90;;;25.50;99.90;;;;;;5095739;28;20116;-69
2021/04/06 05:31:35;;;;;;;13.55;12.70;;;25.40;99.90;;;;;;5094528;28;20036;-69
2021/04/06 05:34:02;;;;;;;13.90;12.70;;;25.40;99.90;;;;;;5095894;28;20358;-71
2021/04/06 05:36:29;;;;;;;14.07;13.07;;;25.50;99.90;;;;;;5095789;28;20016;-70
2021/04/06 05:38:57;;;;;;;14.65;13.57;;;25.40;99.90;;;;;;5095517;28;20431;-67
2021/04/06 05:41:26;;;;;;;15.48;14.38;;;25.30;99.90;;;;;;5095716;28;20024;-67
2021/04/06 05:44:04;;;;;;;15.95;14.77;;;25.20;99.90;;;;;;5094614;28;20032;-67
2021/04/06 05:46:35;;;;;;;17.25;16.08;;;25.00;99.90;;;;;;5095323;28;20031;-67
2021/04/06 05:49:06;;;;;;;18.48;17.10;;;25.30;99.90;;;;;;5095408;28;20021;-66
2021/04/06 05:51:33;;;;;;;19.33;17.92;;;25.40;99.90;;;;;;5095859;28;20080;-66
2021/04/06 05:54:01;;;;;;;19.35;18.00;;;25.50;99.90;;;;;;5095325;28;20562;-74
2021/04/06 05:56:30;;;;;;;19.95;18.80;;;25.40;99.90;;;;;;5095635;28;20404;-64
2021/04/06 05:58:58;;;;;;;20.50;19.27;;;25.10;99.90;;;;;;5094410;28;20491;-70
2021/04/06 06:01:30;;;;;;;23.13;21.75;;;25.10;99.90;;;;;;5095318;28;20434;-71
2021/04/06 06:03:58;;;;;;;24.20;22.70;;;24.90;99.90;;;;;;5095574;28;20062;-70
2021/04/06 06:06:25;;;;;;;26.15;24.58;;;25.00;99.90;;;;;;5095213;28;20020;-71
2021/04/06 06:08:58;;;;;;;27.40;25.60;;;24.90;99.90;;;;;;5095882;28;20024;-71
2021/04/06 06:11:26;;;;;;;28.42;26.55;;;24.80;99.90;;;;;;5095071;28;20173;-71
2021/04/06 06:13:57;;;;;;;28.55;26.65;;;24.60;99.90;;;;;;5095005;28;20020;-70
2021/04/06 06:16:31;;;;;;;29.83;28.20;;;24.40;99.90;;;;;;5095011;28;20020;-71
2021/04/06 06:19:10;;;;;;;30.70;28.83;;;24.30;99.90;;;;;;5095086;28;20016;-71
2021/04/06 06:21:52;;;;;;;32.13;30.38;;;24.10;99.90;;;;;;5094799;28;20016;-70
2021/04/06 06:24:29;;;;;;;32.75;30.95;;;24.10;99.90;;;;;;5095130;28;20097;-71
2021/04/06 06:26:58;;;;;;;32.85;31.25;;;24.20;99.90;;;;;;5094771;28;20097;-70
2021/04/06 06:29:29;;;;;;;32.40;30.55;;;24.30;99.90;;;;;;5094525;28;20461;-70
2021/04/06 06:31:59;;;;;;;30.33;28.65;;;24.40;99.90;;;;;;5093557;28;20507;-70
2021/04/06 06:34:33;;;;;;;29.92;28.33;;;24.40;99.90;;;;;;5094614;28;20028;-70
2021/04/06 06:37:35;;;;;;;30.55;28.85;;;24.50;99.90;;;;;;5094794;28;20566;-70
2021/04/06 06:40:05;;;;;;;32.92;31.20;;;24.40;99.90;;;;;;5012191;28;20410;-70
2021/04/06 06:42:39;;;;;;;35.15;32.88;;;24.40;99.90;;;;;;5080702;28;20039;-70
2021/04/06 06:45:29;;;;;;;37.45;35.30;;;24.30;99.90;;;;;;5094323;28;20518;-71
2021/04/06 06:47:57;;;;;;;40.28;37.88;;;24.10;99.90;;;;;;5094776;28;20411;-70
2021/04/06 06:50:26;;;;;;;41.97;39.88;;;23.80;99.90;;;;;;5094314;28;20024;-71
2021/04/06 06:52:54;;;;;;;44.33;41.92;;;23.70;99.90;;;;;;5092777;28;20047;-71
2021/04/06 06:55:24;;;;;;;46.65;44.08;;;23.70;99.90;;;;;;5094171;28;20477;-71
2021/04/06 06:58:05;;;;;;;52.63;49.03;;;23.60;99.90;;;;;;5092841;28;20465;-71
2021/04/06 07:00:33;;;;;;;55.00;51.58;;;23.50;99.90;;;;;;5094339;28;20074;-70
2021/04/06 07:03:00;;;;;;;54.90;51.53;;;23.40;99.90;;;;;;5093998;28;20024;-71
2021/04/06 07:05:30;;;;;;;54.85;51.53;;;23.50;99.90;;;;;;5094011;28;20506;-70
2021/04/06 07:08:04;;;;;;;55.50;52.23;;;23.40;99.90;;;;;;5093947;28;20047;-70
2021/04/06 07:10:41;;;;;;;58.03;54.33;;;23.30;99.90;;;;;;5093818;28;20024;-71
2021/04/06 07:13:10;;;;;;;59.72;56.05;;;23.30;99.90;;;;;;5093847;28;20511;-71
2021/04/06 07:15:39;;;;;;;57.25;53.95;;;23.20;99.90;;;;;;5093818;28;20042;-70
2021/04/06 07:18:11;;;;;;;56.65;53.22;;;23.10;99.90;;;;;;5093789;28;20024;-70
2021/04/06 07:20:44;;;;;;;58.17;54.78;;;23.00;99.90;;;;;;5093953;28;20025;-71
2021/04/06 07:23:24;;;;;;;57.22;53.92;;;23.00;99.90;;;;;;5093832;28;20080;-69
2021/04/06 07:25:51;;;;;;;56.67;53.33;;;22.90;99.90;;;;;;5093981;28;20422;-71
2021/04/06 07:28:19;;;;;;;55.72;52.53;;;22.90;99.90;;;;;;5093596;28;20020;-72
2021/04/06 07:30:46;;;;;;;56.15;52.88;;;22.80;99.90;;;;;;5093656;28;20106;-71
2021/04/06 07:33:15;;;;;;;54.63;51.47;;;22.80;99.90;;;;;;5093618;28;20028;-71
2021/04/06 07:35:44;;;;;;;51.47;48.60;;;22.80;99.90;;;;;;5093524;28;20020;-71
2021/04/06 07:38:11;;;;;;;51.95;48.90;;;22.80;99.90;;;;;;5093486;28;20451;-71
2021/04/06 07:40:39;;;;;;;51.95;48.60;;;22.70;99.90;;;;;;5093208;28;20044;-70
2021/04/06 07:43:07;;;;;;;50.90;47.95;;;22.70;99.90;;;;;;5093533;28;20024;-71
2021/04/06 07:45:37;;;;;;;49.88;47.13;;;22.60;99.90;;;;;;5093349;28;20052;-70
2021/04/06 07:48:04;;;;;;;51.10;48.15;;;22.50;99.90;;;;;;5093397;28;20111;-71
2021/04/06 07:50:48;;;;;;;51.00;47.72;;;22.40;99.90;;;;;;5093206;28;20028;-71
2021/04/06 07:53:30;;;;;;;50.15;47.08;;;22.40;99.90;;;;;;5093051;28;20035;-71
2021/04/06 07:56:00;;;;;;;51.22;47.95;;;22.40;99.90;;;;;;5093129;28;20150;-71
2021/04/06 07:58:51;;;;;;;51.78;48.65;;;22.30;99.90;;;;;;5093200;28;20042;-71
2021/04/06 08:01:30;;;;;;;50.58;47.47;;;22.30;99.90;;;;;;5093200;28;20412;-70
2021/04/06 08:03:59;;;;;;;49.40;46.50;;;22.10;99.90;;;;;;5093280;28;20392;-71
2021/04/06 08:06:48;;;;;;;51.10;47.80;;;22.10;99.90;;;;;;5093235;28;20036;-71
2021/04/06 08:09:42;;;;;;;49.45;46.45;;;22.10;99.90;;;;;;5092735;28;20057;-72
2021/04/06 08:12:12;;;;;;;45.83;42.72;;;22.10;99.90;;;;;;5091914;28;20024;-71
2021/04/06 08:15:04;;;;;;;47.78;44.40;;;22.00;99.90;;;;;;5092883;28;20020;-74
2021/04/06 08:17:31;;;;;;;46.92;43.63;;;22.00;99.90;;;;;;5093051;28;20028;-71
2021/04/06 08:20:19;;;;;;;47.38;44.20;;;22.00;99.90;;;;;;5093644;28;20066;-71
2021/04/06 08:22:48;;;;;;;47.35;44.45;;;22.00;99.90;;;;;;5097835;28;20028;-71
2021/04/06 08:25:22;;;;;;;52.25;49.03;;;22.00;99.90;;;;;;5097164;28;20101;-69
2021/04/06 08:27:57;;;;;;;47.20;44.25;;;21.90;99.90;;;;;;5097001;28;20028;-69
2021/04/06 08:30:30;;;;;;;48.15;45.15;;;21.90;99.90;;;;;;5097062;28;20507;-69
2021/04/06 08:32:58;;;;;;;50.22;46.45;;;21.80;99.90;;;;;;5097269;28;20469;-69
2021/04/06 08:35:47;;;;;;;49.72;46.70;;;21.80;99.90;;;;;;5095748;28;20384;-69
2021/04/06 08:38:23;;;;;;;48.15;45.08;;;21.80;99.90;;;;;;5096851;28;20530;-69
2021/04/06 08:41:09;;;;;;;49.72;46.50;;;21.80;99.90;;;;;;5095384;28;20048;-69
2021/04/06 08:43:55;;;;;;;50.70;47.40;;;21.80;99.90;;;;;;5095580;28;20059;-70
2021/04/06 08:46:27;;;;;;;49.65;46.35;;;21.70;99.90;;;;;;5095411;28;20429;-70
2021/04/06 08:48:58;;;;;;;49.03;46.05;;;21.80;99.90;;;;;;5095272;28;20108;-70
2021/04/06 08:51:27;;;;;;;;;;;21.70;99.90;;;;;;5095921;28;20086;-69
2021/04/06 08:54:00;;;;;;;50.03;46.83;;;21.70;99.90;;;;;;5095897;28;19904;-69
2021/04/06 08:56:30;;;;;;;45.53;42.92;;;21.60;99.90;;;;;;5095318;28;20017;-70
2021/04/06 08:59:32;;;;;;;48.72;45.58;;;21.60;99.90;;;;;;5095489;28;20111;-69
2021/04/06 09:02:04;;;;;;;45.78;42.92;;;21.60;99.90;;;;;;5095280;28;20024;-68
2021/04/06 09:04:35;;;;;;;43.78;41.17;;;21.60;99.90;;;;;;5095191;28;20020;-70
2021/04/06 09:07:15;;;;;;;44.20;41.50;;;21.60;99.90;;;;;;5095019;28;20024;-68
2021/04/06 09:09:42;;;;;;;;;;;21.60;99.90;;;;;;5096149;28;20043;-69
2021/04/06 09:12:10;;;;;;;43.08;40.47;;;21.60;99.90;;;;;;5095051;28;19994;-69
2021/04/06 09:14:39;;;;;;;43.10;40.47;;;21.50;99.90;;;;;;5094883;28;20103;-69
2021/04/06 09:17:06;;;;;;;45.63;42.58;;;21.50;99.90;;;;;;5094760;28;20027;-68
2021/04/06 09:19:36;;;;;;;47.60;44.55;;;21.40;99.90;;;;;;5093420;28;20016;-66
2021/04/06 09:22:07;;;;;;;46.72;43.78;;;21.40;99.90;;;;;;5094899;28;20535;-68
2021/04/06 09:24:35;;;;;;;47.13;44.17;;;21.40;99.90;;;;;;5095186;28;20078;-67
2021/04/06 09:27:03;;;;;;;46.58;43.60;;;21.40;99.90;;;;;;5094699;28;20107;-68
2021/04/06 09:29:38;;;;;;;46.95;43.70;;;21.30;99.90;;;;;;5094858;28;20047;-67
2021/04/06 09:32:10;;;;;;;46.75;43.60;;;21.30;99.90;;;;;;5094202;28;20477;-68
2021/04/06 09:34:44;;;;;;;48.65;45.42;;;21.30;99.90;;;;;;5094757;28;20012;-68
2021/04/06 09:37:21;;;;;;;50.75;47.25;;;21.30;99.90;;;;;;5094531;28;20103;-67
2021/04/06 09:39:54;;;;;;;47.97;44.72;;;21.30;99.90;;;;;;5094390;28;20072;-69
2021/04/06 09:42:22;;;;;;;49.92;46.35;;;21.30;99.90;;;;;;5094363;28;20032;-68
2021/04/06 09:44:51;;;;;;;52.58;48.83;;;21.30;99.90;;;;;;5094504;28;20020;-68
2021/04/06 09:47:24;;;;;;;52.08;48.65;;;21.20;99.90;;;;;;5094374;28;20024;-68
2021/04/06 09:49:54;;;;;;;52.80;49.30;;;21.20;99.90;;;;;;5094336;28;20035;-68
2021/04/06 09:52:26;;;;;;;51.10;47.70;;;21.20;99.90;;;;;;5094225;28;20488;-68
2021/04/06 09:54:57;;;;;;;48.70;45.50;;;21.20;99.90;;;;;;5094480;28;20192;-68
2021/04/06 09:57:44;;;;;;;49.45;46.15;;;21.30;99.90;;;;;;5093961;28;20153;-69
2021/04/06 10:00:15;;;;;;;52.55;49.33;;;21.30;99.90;;;;;;5094435;28;20095;-69
2021/04/06 10:03:00;;;;;;;49.53;46.42;;;21.40;99.90;;;;;;5094013;28;20089;-69
2021/04/06 10:05:28;;;;;;;49.22;46.05;;;21.50;99.90;;;;;;5093876;28;20050;-69
2021/04/06 10:07:55;;;;;;;49.75;46.25;;;21.60;99.90;;;;;;5093899;28;20477;-70
2021/04/06 10:10:28;;;;;;;49.10;45.85;;;21.70;99.90;;;;;;5093778;28;20417;-69
2021/04/06 10:12:57;;;;;;;50.00;46.88;;;21.70;99.90;;;;;;5093846;28;20024;-69
2021/04/06 10:15:28;;;;;;;50.50;47.00;;;21.70;99.90;;;;;;5093664;28;20024;-69
2021/04/06 10:17:55;;;;;;;;;;;21.70;99.90;;;;;;5094136;28;20034;-69
2021/04/06 10:20:35;;;;;;;53.70;50.05;;;21.70;99.90;;;;;;5093807;28;19954;-70
2021/04/06 10:23:02;;;;;;;53.30;49.55;;;21.60;99.90;;;;;;5094460;28;20027;-69
2021/04/06 10:25:36;;;;;;;53.63;49.90;;;21.60;99.90;;;;;;5095058;28;20032;-69
2021/04/06 10:28:07;;;;;;;51.58;48.30;;;21.60;99.90;;;;;;5093481;28;20032;-69
2021/04/06 10:30:42;;;;;;;51.58;48.30;;;21.60;99.90;;;;;;5094674;28;20024;-69
2021/04/06 10:33:25;;;;;;;52.95;49.63;;;21.60;99.90;;;;;;5094510;28;20066;-69
2021/04/06 10:36:04;;;;;;;53.17;49.17;;;21.50;99.90;;;;;;5094964;28;20020;-70
2021/04/06 10:38:38;;;;;;;53.58;50.05;;;21.40;99.90;;;;;;5094706;28;20097;-69
2021/04/06 10:41:12;;;;;;;54.47;51.03;;;21.30;99.90;;;;;;5094361;28;20048;-68
2021/04/06 10:43:42;;;;;;;52.78;49.47;;;21.30;99.90;;;;;;5094060;28;20047;-68
2021/04/06 10:46:22;;;;;;;54.80;51.20;;;21.20;99.90;;;;;;5093113;28;20027;-69
2021/04/06 10:49:05;;;;;;;55.83;52.22;;;21.20;99.90;;;;;;5094529;28;20407;-68
2021/04/06 10:51:37;;;;;;;55.20;51.90;;;21.20;99.90;;;;;;5094995;28;20085;-68
2021/04/06 10:54:13;;;;;;;54.15;50.65;;;21.10;99.90;;;;;;5094497;28;20016;-68
2021/04/06 10:56:47;;;;;;;55.83;52.33;;;21.10;99.90;;;;;;5094230;28;20023;-68
2021/04/06 10:59:27;;;;;;;55.63;51.88;;;21.00;99.90;;;;;;5094030;28;20016;-68
2021/04/06 11:01:55;;;;;;;55.67;52.40;;;21.00;99.90;;;;;;5094222;28;20028;-69
2021/04/06 11:04:39;;;;;;;56.50;52.90;;;21.00;99.90;;;;;;5094143;28;20024;-68
2021/04/06 11:07:09;;;;;;;54.60;51.33;;;21.00;99.90;;;;;;5094160;28;20377;-68
2021/04/06 11:09:47;;;;;;;55.17;51.95;;;21.00;99.90;;;;;;5093830;28;20031;-69
2021/04/06 11:12:16;;;;;;;56.20;52.70;;;20.90;99.90;;;;;;5093615;28;20042;-68
2021/04/06 11:14:46;;;;;;;56.15;52.65;;;20.80;99.90;;;;;;5092436;28;20020;-64
2021/04/06 11:17:14;;;;;;;53.95;50.75;;;20.80;99.90;;;;;;5094108;28;20017;-65
2021/04/06 11:19:48;;;;;;;53.08;49.85;;;20.70;99.90;;;;;;5093785;28;20028;-65
2021/04/06 11:22:18;;;;;;;53.15;49.95;;;20.70;99.90;;;;;;5092409;28;20020;-64
2021/04/06 11:24:49;;;;;;;54.55;51.15;;;20.60;99.90;;;;;;5093840;28;20472;-64
2021/04/06 11:27:19;;;;;;;56.22;53.03;;;20.50;99.90;;;;;;5093522;28;20032;-64
2021/04/06 11:29:49;;;;;;;57.90;54.00;;;20.50;99.90;;;;;;5093851;28;20024;-65
2021/04/06 11:32:19;;;;;;;58.63;54.95;;;20.40;99.90;;;;;;5093436;28;20035;-65
2021/04/06 11:34:47;;;;;;;59.15;55.65;;;20.40;99.90;;;;;;5093910;28;20027;-64
2021/04/06 11:37:16;;;;;;;59.33;55.83;;;20.40;99.90;;;;;;5093809;28;20012;-63
2021/04/06 11:39:48;;;;;;;61.78;58.08;;;20.30;99.90;;;;;;5093541;28;20406;-65
2021/04/06 11:42:17;;;;;;;60.88;57.05;;;20.30;99.90;;;;;;5093855;28;20032;-65
2021/04/06 11:44:47;;;;;;;63.05;58.97;;;20.30;99.90;;;;;;5093452;28;20493;-65
2021/04/06 11:47:14;;;;;;;63.88;59.97;;;20.20;99.90;;;;;;5093691;28;20073;-64
2021/04/06 11:49:42;;;;;;;62.50;58.40;;;20.20;99.90;;;;;;5093507;28;20020;-65
2021/04/06 11:52:10;;;;;;;61.35;57.53;;;20.20;99.90;;;;;;5093391;28;20031;-64
2021/04/06 11:54:37;;;;;;;62.13;58.28;;;20.20;99.90;;;;;;5093291;28;20019;-65
2021/04/06 11:57:05;;;;;;;63.80;59.80;;;20.20;99.90;;;;;;5092948;28;20024;-65
2021/04/06 11:59:33;;;;;;;63.85;59.85;;;20.20;99.90;;;;;;5093671;28;20025;-65
2021/04/06 12:02:00;;;;;;;63.95;59.95;;;20.20;99.90;;;;;;5093411;28;20059;-66
2021/04/06 12:04:29;;;;;;;63.80;59.72;;;20.10;99.90;;;;;;5093346;28;20020;-65
2021/04/06 12:06:57;;;;;;;65.60;61.30;;;20.20;99.90;;;;;;5094260;28;20032;-65
2021/04/06 12:09:24;;;;;;;67.85;63.40;;;20.20;99.90;;;;;;5093167;28;20020;-64
2021/04/06 12:11:52;;;;;;;67.90;63.50;;;20.10;99.90;;;;;;5093314;28;20016;-65
2021/04/06 12:14:19;;;;;;;70.20;65.78;;;20.10;99.90;;;;;;5093221;28;20473;-65
2021/04/06 12:16:46;;;;;;;67.40;62.92;;;20.10;99.90;;;;;;5093323;28;20039;-66
2021/04/06 12:19:14;;;;;;;68.15;63.72;;;20.10;99.90;;;;;;5091990;28;20023;-65
2021/04/06 12:21:41;;;;;;;69.00;64.35;;;20.10;99.90;;;;;;5093151;28;20465;-66
2021/04/06 12:24:09;;;;;;;69.25;64.90;;;20.10;99.90;;;;;;5091772;28;20020;-68
2021/04/06 12:26:37;;;;;;;72.03;67.22;;;20.10;99.90;;;;;;5092995;28;20098;-65
2021/04/06 12:29:10;;;;;;;73.35;68.88;;;20.00;99.90;;;;;;5092878;28;20052;-65
2021/04/06 12:31:37;;;;;;;72.72;68.22;;;20.00;99.90;;;;;;5093286;28;20082;-64
2021/04/06 12:34:05;;;;;;;74.35;69.80;;;20.00;99.90;;;;;;5092955;28;20039;-65
2021/04/06 12:36:32;;;;;;;73.28;68.75;;;20.00;99.90;;;;;;5092991;28;20053;-65
2021/04/06 12:38:59;;;;;;;74.65;69.60;;;20.00;99.90;;;;;;5092737;28;20016;-65
2021/04/06 12:41:26;;;;;;;72.65;68.10;;;20.00;99.90;;;;;;5092968;28;20106;-65
2021/04/06 12:43:54;;;;;;;75.15;70.57;;;19.90;99.90;;;;;;5092939;28;20027;-65
2021/04/06 12:46:21;;;;;;;77.50;73.07;;;19.80;99.90;;;;;;5092934;28;20412;-65
2021/04/06 12:48:52;;;;;;;77.80;73.05;;;19.90;99.90;;;;;;5092853;28;20027;-64
2021/04/06 12:51:19;;;;;;;76.78;72.28;;;19.80;99.90;;;;;;5092755;28;20043;-64
2021/04/06 12:53:46;;;;;;;75.03;70.60;;;19.70;99.90;;;;;;5092833;28;20028;-65